createdAt,value
2023-02-03T00:02:05.137Z,100968.88
2023-02-03T00:04:32.309Z,100963.78
2023-02-03T00:06:59.488Z,100948.41
2023-02-03T00:09:26.801Z,100952.84
2023-02-03T00:11:54.490Z,100957.09
2023-02-03T00:14:21.553Z,100958.56
2023-02-03T00:16:48.942Z,100951.75
2023-02-03T00:19:17.630Z,100946.53
2023-02-03T00:21:45.258Z,100963.78
2023-02-03T00:24:12.351Z,100956.25
2023-02-03T00:26:43.695Z,100953.63
2023-02-03T00:29:11.733Z,100951.03
2023-02-03T00:31:39.100Z,100955.06
2023-02-03T00:34:06.573Z,100943.03
2023-02-03T00:36:33.770Z,100944.78
2023-02-03T00:39:01.550Z,100949.84
2023-02-03T00:41:31.131Z,100947.25
2023-02-03T00:43:58.640Z,100939.56
2023-02-03T00:46:25.672Z,100944.63
2023-02-03T00:48:52.705Z,100932.56
2023-02-03T00:51:19.824Z,100936.94
2023-02-03T00:53:48.087Z,100930.13
2023-02-03T00:56:15.559Z,100920.69
2023-02-03T00:58:42.972Z,100925.91
2023-02-03T01:01:11.219Z,100919.09
2023-02-03T01:03:39.288Z,100910.38
2023-02-03T01:06:20.725Z,100915.59
2023-02-03T01:08:48.686Z,100912.09
2023-02-03T01:11:18.417Z,100922.28
2023-02-03T01:13:45.817Z,100917.19
2023-02-03T01:16:15.455Z,100907.03
2023-02-03T01:18:43.055Z,100903.75
2023-02-03T01:21:20.129Z,100896.84
2023-02-03T01:23:47.492Z,100891.66
2023-02-03T01:26:16.920Z,100879.88
2023-02-03T01:28:44.193Z,100866.34
2023-02-03T01:31:21.486Z,100858.69
2023-02-03T01:33:48.897Z,100847.78
2023-02-03T01:36:17.405Z,100835.13
2023-02-03T01:38:46.277Z,100825.69
2023-02-03T01:41:19.211Z,100822.50
2023-02-03T01:43:48.986Z,100816.56
2023-02-03T01:46:28.432Z,100817.28
2023-02-03T01:49:04.008Z,100805.91
2023-02-03T01:51:32.106Z,100820.47
2023-02-03T01:53:59.521Z,100823.97
2023-02-03T01:56:30.757Z,100841.06
2023-02-03T01:59:00.398Z,100835.88
2023-02-03T02:01:30.423Z,100840.16
2023-02-03T02:04:02.080Z,100829.06
2023-02-03T02:06:29.583Z,100829.69
2023-02-03T02:08:59.486Z,100827.31
2023-02-03T02:11:27.113Z,100823.97
2023-02-03T02:13:58.899Z,100813.81
2023-02-03T02:16:45.477Z,100809.53
2023-02-03T02:19:36.898Z,100795.06
2023-02-03T02:22:48.485Z,100795.19
2023-02-03T02:25:31.529Z,100788.38
2023-02-03T02:28:20.029Z,100773.22
2023-02-03T02:31:05.806Z,100767.31
2023-02-03T02:34:00.109Z,100764.69
2023-02-03T02:36:43.305Z,100756.34
2023-02-03T02:39:18.997Z,100736.19
2023-02-03T02:42:01.107Z,100731.25
2023-02-03T02:44:56.163Z,100737.19
2023-02-03T02:47:24.130Z,100733.75
2023-02-03T02:50:23.396Z,100727.75
2023-02-03T02:52:51.505Z,100727.75
2023-02-03T02:55:28.033Z,100728.78
2023-02-03T02:58:04.162Z,100721.06
2023-02-03T03:00:33.479Z,100726.97
2023-02-03T03:03:18.411Z,100731.13
2023-02-03T03:05:53.164Z,100741.28
2023-02-03T03:08:31.695Z,100740.47
2023-02-03T03:11:00.381Z,100740.44
2023-02-03T03:13:33.030Z,100737.03
2023-02-03T03:16:05.321Z,100729.41
2023-02-03T03:18:39.130Z,100720.94
2023-02-03T03:21:07.603Z,100716.84
2023-02-03T03:23:39.808Z,100721.06
2023-02-03T03:26:35.957Z,100710.03
2023-02-03T03:29:24.889Z,100696.47
2023-02-03T03:31:52.157Z,100702.63
2023-02-03T03:34:19.802Z,100691.63
2023-02-03T03:37:08.462Z,100678.28
2023-02-03T03:39:37.741Z,100670.88
2023-02-03T03:42:23.542Z,100664.97
2023-02-03T03:45:26.023Z,100653.72
2023-02-03T03:48:20.010Z,100657.22
2023-02-03T03:50:56.299Z,100648.91
2023-02-03T03:53:25.962Z,100643.84
2023-02-03T03:55:54.997Z,100643.94
2023-02-03T03:58:26.619Z,100635.38
2023-02-03T04:00:56.614Z,100633.66
2023-02-03T04:03:28.661Z,100628.44
2023-02-03T04:05:55.790Z,100633.78
2023-02-03T04:08:22.957Z,100631.28
2023-02-03T04:10:49.938Z,100611.44
2023-02-03T04:13:20.010Z,100627.06
2023-02-03T04:15:47.194Z,100602.22
2023-02-03T04:18:15.671Z,100623.94
2023-02-03T04:20:43.385Z,100631.59
2023-02-03T04:23:10.746Z,100615.50
2023-02-03T04:25:37.883Z,100607.09
2023-02-03T04:28:06.237Z,100602.00
2023-02-03T04:30:33.741Z,100598.63
2023-02-03T04:33:00.953Z,100593.50
2023-02-03T04:35:28.101Z,100588.16
2023-02-03T04:37:55.326Z,100589.97
2023-02-03T04:40:22.438Z,100593.53
2023-02-03T04:42:49.487Z,100571.38
2023-02-03T04:45:16.589Z,100576.69
2023-02-03T04:47:43.727Z,100551.53
2023-02-03T04:50:10.846Z,100566.41
2023-02-03T04:52:38.251Z,100573.31
2023-02-03T04:55:05.740Z,100560.56
2023-02-03T04:57:32.835Z,100563.22
2023-02-03T04:59:59.932Z,100559.69
2023-02-03T05:02:26.857Z,100555.47
2023-02-03T05:04:54.049Z,100566.50
2023-02-03T05:07:21.051Z,100556.34
2023-02-03T05:09:48.174Z,100546.16
2023-02-03T05:12:15.236Z,100530.78
2023-02-03T05:14:42.188Z,100518.75
2023-02-03T05:17:09.194Z,100531.00
2023-02-03T05:19:36.237Z,100511.47
2023-02-03T05:22:03.368Z,100502.09
2023-02-03T05:24:30.852Z,100499.63
2023-02-03T05:26:57.856Z,100488.34
2023-02-03T05:29:24.792Z,100491.16
2023-02-03T05:31:51.937Z,100478.53
2023-02-03T05:34:18.997Z,100471.69
2023-02-03T05:36:46.268Z,100459.78
2023-02-03T05:39:13.269Z,100456.44
2023-02-03T05:41:52.539Z,100448.75
2023-02-03T05:44:25.139Z,100444.44
2023-02-03T05:46:57.570Z,100439.34
2023-02-03T05:49:24.653Z,100430.78
2023-02-03T05:51:55.430Z,100418.78
2023-02-03T05:54:23.198Z,100415.53
2023-02-03T05:56:50.187Z,100406.97
2023-02-03T05:59:17.770Z,100396.78
2023-02-03T06:01:44.806Z,100370.84
2023-02-03T06:04:12.129Z,100393.47
2023-02-03T06:06:39.160Z,100396.94
2023-02-03T06:09:08.106Z,100390.94
2023-02-03T06:11:36.117Z,100395.19
2023-02-03T06:14:03.518Z,100380.03
2023-02-03T06:16:30.671Z,100371.59
2023-02-03T06:19:02.272Z,100371.69
2023-02-03T06:21:29.586Z,100368.34
2023-02-03T06:23:59.090Z,100362.31
2023-02-03T06:26:26.249Z,100364.88
2023-02-03T06:28:53.236Z,100365.78
2023-02-03T06:31:20.991Z,100356.53
2023-02-03T06:33:48.050Z,100349.72
2023-02-03T06:36:15.128Z,100351.56
2023-02-03T06:38:42.222Z,100336.19
2023-02-03T06:41:09.453Z,100336.38
2023-02-03T06:43:37.119Z,100315.28
2023-02-03T06:46:04.280Z,100287.97
2023-02-03T06:48:31.264Z,100302.53
2023-02-03T06:50:58.271Z,100292.19
2023-02-03T06:53:25.378Z,100299.16
2023-02-03T06:55:52.427Z,100286.50
2023-02-03T06:58:19.589Z,100280.63
2023-02-03T07:00:46.697Z,100247.78
2023-02-03T07:03:13.794Z,100270.34
2023-02-03T07:05:40.993Z,100270.56
2023-02-03T07:08:08.091Z,100271.50
2023-02-03T07:10:35.177Z,100259.72
2023-02-03T07:13:04.059Z,100266.53
2023-02-03T07:15:31.197Z,100258.94
2023-02-03T07:17:58.313Z,100247.88
2023-02-03T07:20:25.975Z,100242.78
2023-02-03T07:22:57.376Z,100224.94
2023-02-03T07:25:25.304Z,100228.41
2023-02-03T07:27:52.695Z,100219.13
2023-02-03T07:30:20.029Z,100211.63
2023-02-03T07:32:50.936Z,100209.88
2023-02-03T07:35:18.287Z,100197.97
2023-02-03T07:37:46.025Z,100199.69
2023-02-03T07:40:14.208Z,100181.06
2023-02-03T07:42:45.897Z,100170.91
2023-02-03T07:45:15.683Z,100176.16
2023-02-03T07:47:43.755Z,100169.44
2023-02-03T07:50:11.828Z,100161.06
2023-02-03T07:52:39.224Z,100157.50
2023-02-03T07:55:06.836Z,100149.16
2023-02-03T07:57:33.945Z,100131.13
2023-02-03T08:00:01.230Z,100119.25
2023-02-03T08:02:28.321Z,100117.94
2023-02-03T08:04:58.236Z,100111.19
2023-02-03T08:07:25.368Z,100091.63
2023-02-03T08:09:52.468Z,100089.09
2023-02-03T08:12:19.537Z,100093.41
2023-02-03T08:14:46.589Z,100078.16
2023-02-03T08:17:13.553Z,100065.28
2023-02-03T08:19:40.649Z,100061.09
2023-02-03T08:22:07.649Z,100059.50
2023-02-03T08:24:34.727Z,100051.84
2023-02-03T08:27:01.890Z,100037.44
2023-02-03T08:29:28.913Z,100034.03
2023-02-03T08:31:56.440Z,100031.56
2023-02-03T08:34:23.463Z,100015.44
2023-02-03T08:36:50.567Z,99996.78
2023-02-03T08:39:17.601Z,99998.59
2023-02-03T08:41:44.641Z,99990.03
2023-02-03T08:44:11.852Z,99985.00
2023-02-03T08:46:43.731Z,99974.78
2023-02-03T08:49:11.327Z,99964.66
2023-02-03T08:51:38.488Z,99944.94
2023-02-03T08:54:05.860Z,99951.09
2023-02-03T08:56:34.332Z,99941.75
2023-02-03T08:59:01.570Z,99932.47
2023-02-03T09:01:29.041Z,99929.06
2023-02-03T09:03:56.366Z,99917.19
2023-02-03T09:06:26.136Z,99902.66
2023-02-03T09:08:53.393Z,99891.50
2023-02-03T09:11:20.561Z,99877.91
2023-02-03T09:13:48.880Z,99872.81
2023-02-03T09:16:18.655Z,99857.38
2023-02-03T09:18:46.626Z,99859.25
2023-02-03T09:21:31.681Z,99857.53
2023-02-03T09:24:04.227Z,99832.94
2023-02-03T09:26:31.639Z,99844.06
2023-02-03T09:28:58.744Z,99816.88
2023-02-03T09:31:25.909Z,99809.25
2023-02-03T09:33:52.994Z,99805.84
2023-02-03T09:36:20.157Z,99793.06
2023-02-03T09:38:47.302Z,99781.94
2023-02-03T09:41:29.273Z,99786.28
2023-02-03T09:44:00.280Z,99763.38
2023-02-03T09:46:30.473Z,99756.53
2023-02-03T09:49:04.884Z,99754.00
2023-02-03T09:51:46.435Z,99706.06
2023-02-03T09:54:22.537Z,99725.19
2023-02-03T09:56:52.631Z,99717.50
2023-02-03T09:59:19.874Z,99715.00
2023-02-03T10:02:02.013Z,99705.69
2023-02-03T10:04:35.189Z,99687.88
2023-02-03T10:07:25.618Z,99662.31
2023-02-03T10:10:15.196Z,99665.94
2023-02-03T10:12:57.120Z,99651.59
2023-02-03T10:15:52.129Z,99635.59
2023-02-03T10:18:35.280Z,99611.84
2023-02-03T10:21:29.920Z,99609.41
2023-02-03T10:23:58.928Z,99595.06
2023-02-03T10:26:28.170Z,99578.19
2023-02-03T10:28:57.892Z,99568.97
2023-02-03T10:31:32.093Z,99568.09
2023-02-03T10:34:11.263Z,99569.81
2023-02-03T10:36:53.339Z,99546.88
2023-02-03T10:39:25.132Z,99532.47
2023-02-03T10:41:53.568Z,99527.38
2023-02-03T10:44:20.698Z,99518.91
2023-02-03T10:46:47.822Z,99512.88
2023-02-03T10:49:16.679Z,99503.63
2023-02-03T10:51:50.809Z,99498.53
2023-02-03T10:54:44.083Z,99486.69
2023-02-03T10:57:16.853Z,99471.47
2023-02-03T10:59:47.091Z,99467.19
2023-02-03T11:02:27.182Z,99469.72
2023-02-03T11:05:21.061Z,99460.38
2023-02-03T11:07:48.830Z,99444.25
2023-02-03T11:10:36.388Z,99420.47
2023-02-03T11:13:26.194Z,99419.59
2023-02-03T11:15:57.976Z,99410.22
2023-02-03T11:18:40.351Z,99399.19
2023-02-03T11:21:15.107Z,99373.66
2023-02-03T11:23:49.831Z,99373.72
2023-02-03T11:26:22.150Z,99356.75
2023-02-03T11:28:51.943Z,99350.72
2023-02-03T11:31:23.844Z,99350.72
2023-02-03T11:34:18.167Z,99328.66
2023-02-03T11:36:45.285Z,99332.09
2023-02-03T11:39:25.000Z,99313.41
2023-02-03T11:41:52.605Z,99296.44
2023-02-03T11:44:29.670Z,99293.16
2023-02-03T11:47:10.211Z,99276.13
2023-02-03T11:49:49.454Z,99271.03
2023-02-03T11:52:38.301Z,99276.13
2023-02-03T11:55:33.291Z,99259.16
2023-02-03T11:58:38.410Z,99254.09
2023-02-03T12:01:20.537Z,99237.16
2023-02-03T12:04:17.231Z,99240.63
2023-02-03T12:06:56.897Z,99230.47
2023-02-03T12:09:28.912Z,99225.44
2023-02-03T12:12:27.960Z,99215.22
2023-02-03T12:15:27.704Z,99217.78
2023-02-03T12:18:06.845Z,99203.38
2023-02-03T12:20:40.923Z,99200.81
2023-02-03T12:23:49.085Z,99203.34
2023-02-03T12:26:37.843Z,99198.28
2023-02-03T12:29:10.278Z,99184.72
2023-02-03T12:31:44.988Z,99179.63
2023-02-03T12:34:23.364Z,99183.09
2023-02-03T12:37:23.927Z,99171.25
2023-02-03T12:40:12.892Z,99166.19
2023-02-03T12:42:57.946Z,99166.22
2023-02-03T12:45:35.158Z,99161.97
2023-02-03T12:48:10.340Z,99158.59
2023-02-03T12:50:46.224Z,99156.00
2023-02-03T12:53:19.703Z,99145.84
2023-02-03T12:55:52.140Z,99141.63
2023-02-03T12:58:28.710Z,99148.44
2023-02-03T13:01:10.504Z,99142.53
2023-02-03T13:03:47.122Z,99143.38
2023-02-03T13:06:25.104Z,99134.03
2023-02-03T13:09:14.247Z,99123.84
2023-02-03T13:11:48.843Z,99117.09
2023-02-03T13:14:28.422Z,99117.16
2023-02-03T13:17:01.945Z,99117.16
2023-02-03T13:19:39.876Z,99117.19
2023-02-03T13:22:15.119Z,99111.25
2023-02-03T13:24:48.106Z,99112.94
2023-02-03T13:27:38.275Z,99117.25
2023-02-03T13:30:11.741Z,99110.44
2023-02-03T13:33:10.640Z,99112.16
2023-02-03T13:35:43.276Z,99110.50
2023-02-03T13:38:28.814Z,99107.13
2023-02-03T13:41:14.322Z,99107.16
2023-02-03T13:43:46.891Z,99108.84
2023-02-03T13:46:36.032Z,99106.28
2023-02-03T13:49:05.938Z,99112.28
2023-02-03T13:51:37.966Z,99112.28
2023-02-03T13:54:08.753Z,99114.03
2023-02-03T13:56:36.054Z,99105.53
2023-02-03T13:59:05.804Z,99108.94
2023-02-03T14:01:40.135Z,99105.53
2023-02-03T14:04:27.849Z,99102.16
2023-02-03T14:06:59.025Z,99113.22
2023-02-03T14:09:34.128Z,99105.56
2023-02-03T14:12:16.343Z,99119.19
2023-02-03T14:14:44.843Z,99110.66
2023-02-03T14:17:36.601Z,99115.78
2023-02-03T14:20:25.990Z,99118.31
2023-02-03T14:23:00.985Z,99122.59
2023-02-03T14:25:28.962Z,99111.56
2023-02-03T14:28:15.843Z,99114.09
2023-02-03T14:31:29.607Z,99120.09
2023-02-03T14:34:15.613Z,99107.34
2023-02-03T14:36:55.108Z,99111.59
2023-02-03T14:39:55.588Z,99121.88
2023-02-03T14:42:44.848Z,99124.41
2023-02-03T14:45:49.126Z,99117.63
2023-02-03T14:48:47.101Z,99125.31
2023-02-03T14:51:45.958Z,99133.00
2023-02-03T14:54:34.500Z,99133.03
2023-02-03T14:57:23.622Z,99133.03
2023-02-03T14:59:56.674Z,99134.75
2023-02-03T15:02:31.255Z,99134.72
2023-02-03T15:05:13.896Z,99156.88
2023-02-03T15:07:45.521Z,99153.47
2023-02-03T15:10:17.669Z,99158.56
2023-02-03T15:12:50.787Z,99150.03
2023-02-03T15:15:21.774Z,99155.16
2023-02-03T15:17:53.383Z,99158.56
2023-02-03T15:20:32.454Z,99163.69
2023-02-03T15:23:00.339Z,99163.69
2023-02-03T15:25:30.981Z,99168.78
2023-02-03T15:28:14.131Z,99173.88
2023-02-03T15:30:41.776Z,99177.25
2023-02-03T15:33:15.630Z,99178.13
2023-02-03T15:35:45.610Z,99175.56
2023-02-03T15:38:18.370Z,99180.69
2023-02-03T15:40:49.467Z,99178.16
2023-02-03T15:43:38.391Z,99190.91
2023-02-03T15:46:17.903Z,99187.47
2023-02-03T15:49:23.416Z,99196.00
2023-02-03T15:51:57.100Z,99178.97
2023-02-03T15:54:41.307Z,99195.16
2023-02-03T15:57:16.548Z,99198.59
2023-02-03T15:59:51.386Z,99189.19
2023-02-03T16:02:22.893Z,99207.97
2023-02-03T16:04:50.648Z,99197.69
2023-02-03T16:07:29.280Z,99214.75
2023-02-03T16:09:58.151Z,99213.06
2023-02-03T16:12:28.134Z,99223.28
2023-02-03T16:14:57.073Z,99221.56
2023-02-03T16:17:30.155Z,99230.91
2023-02-03T16:20:12.577Z,99234.31
2023-02-03T16:22:42.600Z,99236.88
2023-02-03T16:25:15.626Z,99241.13
2023-02-03T16:27:45.016Z,99241.13
2023-02-03T16:30:30.950Z,99249.66
2023-02-03T16:33:36.743Z,99254.75
2023-02-03T16:36:32.814Z,99273.47
2023-02-03T16:39:22.065Z,99266.66
2023-02-03T16:42:07.842Z,99282.00
2023-02-03T16:44:53.312Z,99276.03
2023-02-03T16:47:45.420Z,99293.03
2023-02-03T16:50:39.254Z,99286.22
2023-02-03T16:53:12.805Z,99298.16
2023-02-03T16:55:40.528Z,99289.66
2023-02-03T16:58:08.541Z,99291.38
2023-02-03T17:00:35.718Z,99294.78
2023-02-03T17:03:05.801Z,99301.56
2023-02-03T17:05:37.832Z,99310.13
2023-02-03T17:08:05.658Z,99306.69
2023-02-03T17:10:38.455Z,99315.22
2023-02-03T17:13:06.315Z,99322.84
2023-02-03T17:15:33.872Z,99313.47
2023-02-03T17:18:01.495Z,99327.97
2023-02-03T17:20:28.578Z,99322.84
2023-02-03T17:22:55.744Z,99321.13
2023-02-03T17:25:23.047Z,99322.00
2023-02-03T17:27:50.190Z,99325.34
2023-02-03T17:30:17.461Z,99325.34
2023-02-03T17:32:44.595Z,99336.47
2023-02-03T17:35:11.736Z,99346.69
2023-02-03T17:37:38.861Z,99345.84
2023-02-03T17:54:14.501Z,99367.09
2023-02-03T17:56:41.684Z,99373.09
2023-02-03T17:59:10.112Z,99361.16
2023-02-03T18:01:38.624Z,99367.97
2023-02-03T18:04:06.484Z,99372.22
2023-02-03T18:06:35.404Z,99373.06
2023-02-03T18:09:08.020Z,99372.22
2023-02-03T18:11:36.156Z,99371.41
2023-02-03T18:14:05.208Z,99379.88
2023-02-03T18:16:35.021Z,99379.88
2023-02-03T18:19:06.956Z,99379.06
2023-02-03T18:21:34.376Z,99367.94
2023-02-03T18:24:02.118Z,99362.84
2023-02-03T18:26:34.593Z,99366.25
2023-02-03T18:29:02.101Z,99372.22
2023-02-03T18:31:29.334Z,99361.09
2023-02-03T18:33:56.921Z,99366.22
2023-02-03T18:36:23.886Z,99369.63
2023-02-03T18:38:50.936Z,99378.16
2023-02-03T18:41:20.593Z,99377.28
2023-02-03T18:43:49.460Z,99391.75
2023-02-03T18:46:25.765Z,99379.81
2023-02-03T18:48:53.315Z,99382.34
2023-02-03T18:51:21.915Z,99390.06
2023-02-03T18:53:49.961Z,99386.66
2023-02-03T18:56:19.737Z,99397.75
2023-02-03T18:58:47.651Z,99388.38
2023-02-03T19:01:26.604Z,99388.38
2023-02-03T19:03:59.232Z,99401.94
2023-02-03T19:06:30.160Z,99402.81
2023-02-03T19:08:58.938Z,99405.38
2023-02-03T19:11:26.436Z,99398.56
2023-02-03T19:13:54.081Z,99398.56
2023-02-03T19:16:21.820Z,99390.03
2023-02-03T19:18:49.107Z,99400.28
2023-02-03T19:21:17.647Z,99407.97
2023-02-03T19:23:44.760Z,99407.09
2023-02-03T19:26:12.436Z,99405.34
2023-02-03T19:28:40.920Z,99423.25
2023-02-03T19:31:15.369Z,99416.41
2023-02-03T19:33:43.235Z,99433.44
2023-02-03T19:36:11.805Z,99435.97
2023-02-03T19:38:39.381Z,99435.09
2023-02-03T19:41:08.472Z,99446.16
2023-02-03T19:43:35.729Z,99448.72
2023-02-03T19:46:03.062Z,99435.03
2023-02-03T19:48:30.555Z,99444.44
2023-02-03T19:50:57.842Z,99417.94
2023-02-03T19:53:25.098Z,99441.03
2023-02-03T19:55:52.803Z,99446.16
2023-02-03T19:58:20.475Z,99451.25
2023-02-03T20:00:47.519Z,99439.28
2023-02-03T20:03:14.735Z,99452.94
2023-02-03T20:05:41.994Z,99458.06
2023-02-03T20:08:13.333Z,99452.94
2023-02-03T20:10:42.594Z,99446.97
2023-02-03T20:13:10.987Z,99459.75
2023-02-03T20:15:38.326Z,99456.34
2023-02-03T20:18:06.869Z,99457.22
2023-02-03T20:20:34.810Z,99460.56
2023-02-03T20:23:02.090Z,99460.59
2023-02-03T20:25:29.367Z,99457.16
2023-02-03T20:27:58.438Z,99460.56
2023-02-03T20:30:25.743Z,99458.88
2023-02-03T20:32:54.846Z,99452.91
2023-02-03T20:35:23.986Z,99454.59
2023-02-03T20:37:51.507Z,99448.66
2023-02-03T20:40:22.484Z,99448.66
2023-02-03T20:42:50.626Z,99449.50
2023-02-03T20:45:19.957Z,99456.34
2023-02-03T20:47:47.490Z,99449.47
2023-02-03T20:50:18.478Z,99451.22
2023-02-03T20:52:50.814Z,99458.84
2023-02-03T20:55:21.127Z,99458.84
2023-02-03T20:57:51.498Z,99459.72
2023-02-03T21:00:21.482Z,99454.56
2023-02-03T21:03:07.479Z,99456.25
2023-02-03T21:05:43.533Z,99455.41
2023-02-03T21:08:18.829Z,99470.75
2023-02-03T21:10:47.383Z,99472.44
2023-02-03T21:13:28.112Z,99476.66
2023-02-03T21:15:59.618Z,99493.72
2023-02-03T21:18:32.827Z,99490.28
2023-02-03T21:21:00.610Z,99483.47
2023-02-03T21:23:37.785Z,99483.47
2023-02-03T21:26:28.689Z,99483.44
2023-02-03T21:28:58.613Z,99482.59
2023-02-03T21:31:31.775Z,99481.72
2023-02-03T21:34:02.732Z,99490.22
2023-02-03T21:36:35.340Z,99486.81
2023-02-03T21:39:02.997Z,99495.31
2023-02-03T21:41:33.975Z,99489.28
2023-02-03T21:44:01.235Z,99475.59
2023-02-03T21:46:32.015Z,99508.91
2023-02-03T21:49:04.153Z,99515.69
2023-02-03T21:51:35.292Z,99515.66
2023-02-03T21:54:16.041Z,99524.19
2023-02-03T21:56:45.556Z,99530.94
2023-02-03T21:59:24.695Z,99539.44
2023-02-03T22:01:53.577Z,99547.97
2023-02-03T22:04:20.722Z,99568.38
2023-02-03T22:06:50.667Z,99573.38
2023-02-03T22:09:20.186Z,99597.22
2023-02-03T22:11:47.286Z,99614.84
2023-02-03T22:14:16.800Z,99620.41
2023-02-03T22:16:44.727Z,99623.50
2023-02-03T22:19:11.853Z,99635.94
2023-02-03T22:21:39.306Z,99662.03
2023-02-03T22:24:06.882Z,99661.88
2023-02-03T22:26:34.049Z,99671.94
2023-02-03T22:29:02.485Z,99682.75
2023-02-03T22:31:29.798Z,99687.63
2023-02-03T22:33:56.974Z,99709.50
2023-02-03T22:36:24.115Z,99725.66
2023-02-03T22:38:51.283Z,99745.88
2023-02-03T22:41:18.629Z,99703.03
2023-02-03T22:43:45.656Z,99755.88
2023-02-03T22:46:12.864Z,99765.91
2023-02-03T22:48:39.930Z,99784.41
2023-02-03T22:51:07.053Z,99792.72
2023-02-03T22:53:35.046Z,99801.72
2023-02-03T22:56:02.434Z,99813.56
2023-02-03T22:58:29.547Z,99838.22
2023-02-03T23:00:56.662Z,99851.69
2023-02-03T23:03:23.902Z,99860.00
2023-02-03T23:05:51.028Z,99880.44
2023-02-03T23:08:18.159Z,99883.53
2023-02-03T23:10:45.262Z,99915.69
2023-02-03T23:13:12.485Z,99922.44
2023-02-03T23:15:39.614Z,99932.50
2023-02-03T23:18:06.715Z,99932.28
2023-02-03T23:20:33.881Z,99968.13
2023-02-03T23:23:00.981Z,99978.22
2023-02-03T23:25:28.046Z,99981.66
2023-02-03T23:27:55.223Z,100001.06
2023-02-03T23:30:22.432Z,100009.38
2023-02-03T23:32:49.482Z,100016.94
2023-02-03T23:35:34.998Z,100043.91
2023-02-03T23:38:02.123Z,100061.72
2023-02-03T23:40:29.590Z,100059.16
2023-02-03T23:42:56.996Z,100070.47
2023-02-03T23:45:24.050Z,100094.44
2023-02-03T23:47:51.257Z,100113.25
2023-02-03T23:50:19.290Z,100129.16
2023-02-03T23:52:47.078Z,100143.66
2023-02-03T23:55:20.989Z,100146.13
2023-02-03T23:57:48.204Z,100162.19
